createdAt,value
2022-12-24T06:20:00.504Z,38.50
2022-12-24T06:28:43.120Z,45.00
2022-12-24T06:37:24.083Z,37.50
2022-12-24T06:45:58.870Z,38.10
2022-12-24T06:54:34.329Z,33.30
2022-12-24T07:03:10.381Z,42.10
2022-12-24T07:11:45.160Z,43.10
2022-12-24T07:20:19.963Z,52.40
2022-12-24T07:28:51.593Z,52.80
2022-12-24T07:37:24.959Z,43.30
2022-12-24T07:45:56.317Z,46.70
2022-12-24T07:54:19.299Z,52.20
2022-12-24T08:02:42.512Z,57.50
2022-12-24T08:11:07.684Z,60.90
2022-12-24T08:19:30.851Z,66.40
2022-12-24T08:27:53.871Z,53.70
2022-12-24T08:36:17.112Z,42.20
2022-12-24T08:44:40.270Z,49.30
2022-12-24T08:53:03.310Z,37.90
2022-12-24T09:01:26.614Z,50.20
2022-12-24T09:09:49.922Z,48.20
2022-12-24T09:18:12.877Z,55.20
2022-12-24T09:26:36.539Z,47.80
2022-12-24T09:35:00.148Z,76.30
2022-12-24T09:43:25.465Z,64.40
2022-12-24T09:51:57.153Z,73.80
2022-12-24T10:00:30.425Z,57.90
2022-12-24T10:09:15.856Z,45.90
2022-12-24T10:18:00.839Z,51.60
2022-12-24T10:26:37.011Z,45.50
2022-12-24T10:35:06.617Z,43.70
2022-12-24T10:43:30.670Z,36.30
2022-12-24T10:52:03.353Z,43.80
2022-12-24T11:00:31.930Z,37.60
2022-12-24T11:09:20.743Z,45.00
2022-12-24T11:18:05.322Z,47.30
2022-12-24T11:26:30.718Z,39.90
2022-12-24T11:34:53.535Z,37.70
2022-12-24T11:43:22.066Z,39.20
2022-12-24T11:52:10.236Z,25.90
2022-12-24T12:00:33.530Z,33.20
2022-12-24T12:09:06.121Z,34.70
2022-12-24T12:18:16.641Z,29.90
2022-12-24T12:26:41.360Z,20.40
2022-12-24T12:35:17.151Z,19.90
2022-12-24T12:43:49.354Z,23.20
2022-12-24T12:52:17.168Z,15.40
2022-12-24T13:00:45.378Z,17.50
2022-12-24T13:09:23.710Z,20.00
2022-12-24T13:17:49.464Z,24.10
2022-12-24T13:26:14.822Z,15.60
2022-12-24T13:34:38.925Z,16.80
2022-12-24T13:43:01.824Z,18.80
2022-12-24T13:51:26.454Z,59.70
2022-12-24T14:00:02.566Z,28.20
2022-12-24T14:08:47.953Z,22.50
2022-12-24T14:17:27.063Z,18.00
2022-12-24T14:25:50.020Z,17.80
2022-12-24T14:34:13.853Z,28.00
2022-12-24T14:42:45.299Z,19.20
2022-12-24T14:51:20.522Z,24.60
2022-12-24T14:59:49.436Z,23.10
2022-12-24T15:08:19.690Z,37.00
2022-12-24T15:16:52.826Z,37.70
2022-12-24T15:25:25.244Z,18.60
2022-12-24T15:33:50.410Z,21.60
2022-12-24T15:42:18.803Z,22.60
2022-12-24T15:50:47.141Z,33.60
2022-12-24T15:59:13.183Z,21.90
2022-12-24T16:07:56.056Z,29.60
2022-12-24T16:16:32.615Z,30.90
2022-12-24T16:24:55.832Z,32.30
2022-12-24T16:33:20.876Z,27.70
2022-12-24T16:42:02.477Z,30.10
2022-12-24T16:50:25.293Z,24.20
2022-12-24T16:58:48.105Z,24.70
2022-12-24T17:07:12.901Z,38.10
2022-12-24T17:15:35.783Z,25.80
2022-12-24T17:23:58.704Z,24.70
2022-12-24T17:32:21.631Z,26.30
2022-12-24T17:40:44.661Z,39.70
2022-12-24T17:49:07.977Z,22.10
2022-12-24T17:57:30.787Z,22.30
2022-12-24T18:05:53.777Z,23.60
2022-12-24T18:14:18.952Z,28.50
2022-12-24T18:22:41.854Z,22.80
2022-12-24T18:31:07.536Z,37.80
2022-12-24T18:39:30.505Z,24.20
2022-12-24T18:47:53.419Z,15.80
2022-12-24T18:56:22.818Z,14.50
2022-12-24T19:04:45.623Z,14.90
2022-12-24T19:13:08.429Z,14.60
2022-12-24T19:21:31.287Z,18.60
2022-12-24T19:29:54.125Z,22.30
2022-12-24T19:38:16.902Z,16.30
2022-12-24T19:46:40.206Z,14.10
2022-12-24T19:55:03.099Z,17.80
2022-12-24T20:03:25.976Z,15.70
2022-12-24T20:11:52.082Z,22.60
2022-12-24T20:20:15.097Z,22.00
2022-12-24T20:28:38.963Z,37.90
2022-12-24T20:37:02.092Z,17.30
2022-12-24T20:45:25.134Z,19.50
2022-12-24T20:53:48.043Z,13.50
2022-12-24T21:02:14.240Z,23.50
2022-12-24T21:10:37.884Z,57.10
2022-12-24T21:19:01.586Z,43.60
2022-12-24T21:27:24.421Z,50.70
2022-12-24T21:35:47.576Z,38.10
2022-12-24T21:44:10.422Z,19.10
2022-12-24T21:52:33.773Z,19.90
2022-12-24T22:00:57.723Z,15.70
2022-12-24T22:09:39.093Z,15.80
2022-12-24T22:18:02.370Z,12.70
2022-12-24T22:26:25.401Z,17.50
2022-12-24T22:34:49.625Z,12.20
2022-12-24T22:43:12.519Z,13.80
2022-12-24T22:51:35.732Z,24.00
2022-12-24T22:59:58.655Z,19.20
2022-12-24T23:08:21.700Z,24.70
2022-12-24T23:16:44.693Z,29.80
2022-12-24T23:25:07.839Z,38.80
2022-12-24T23:33:31.173Z,48.80
2022-12-24T23:41:54.199Z,55.70
2022-12-24T23:50:17.140Z,47.90
2022-12-24T23:58:41.476Z,43.30
